createdAt,value
2022-08-05T00:01:48.460Z,46.67
2022-08-05T00:06:44.044Z,47.38
2022-08-05T00:11:49.661Z,47.41
2022-08-05T00:16:52.347Z,48.13
2022-08-05T00:21:48.589Z,48.40
2022-08-05T00:26:46.691Z,49.35
2022-08-05T00:32:10.135Z,49.74
2022-08-05T00:37:09.673Z,49.77
2022-08-05T00:42:08.666Z,50.02
2022-08-05T00:47:05.731Z,50.11
2022-08-05T00:52:00.809Z,50.41
2022-08-05T00:56:54.053Z,50.79
2022-08-05T01:01:48.602Z,50.01
2022-08-05T01:06:46.572Z,50.00
2022-08-05T01:11:45.640Z,49.14
2022-08-05T01:16:48.953Z,49.69
2022-08-05T01:22:15.422Z,50.28
2022-08-05T01:27:29.351Z,50.01
2022-08-05T01:32:33.610Z,50.67
2022-08-05T01:37:46.347Z,50.06
2022-08-05T01:42:41.674Z,49.82
2022-08-05T01:47:39.537Z,50.64
2022-08-05T01:52:39.488Z,51.23
2022-08-05T01:58:09.367Z,52.26
2022-08-05T02:02:56.433Z,53.28
2022-08-05T02:08:00.134Z,53.92
2022-08-05T02:12:58.510Z,54.66
2022-08-05T02:18:30.925Z,55.24
2022-08-05T02:23:14.984Z,55.50
2022-08-05T02:28:11.984Z,55.68
2022-08-05T02:33:11.326Z,56.10
2022-08-05T02:38:05.488Z,56.76
2022-08-05T02:43:03.874Z,57.01
2022-08-05T02:48:11.868Z,57.12
2022-08-05T02:53:11.779Z,57.08
2022-08-05T02:58:11.487Z,57.30
2022-08-05T03:03:10.241Z,58.06
2022-08-05T03:08:09.478Z,58.34
2022-08-05T03:17:57.764Z,58.20
2022-08-05T03:22:51.354Z,58.54
2022-08-05T03:27:58.973Z,59.13
2022-08-05T03:32:54.685Z,60.16
2022-08-05T03:37:48.219Z,60.13
2022-08-05T03:42:52.271Z,60.74
2022-08-05T03:47:45.902Z,60.78
2022-08-05T03:54:59.972Z,61.31
2022-08-05T03:58:06.477Z,61.23
2022-08-05T04:03:04.382Z,61.23
2022-08-05T04:07:59.016Z,61.33
2022-08-05T04:12:52.934Z,61.24
2022-08-05T04:17:56.159Z,60.91
2022-08-05T04:22:53.251Z,60.96
2022-08-05T04:27:57.188Z,60.98
2022-08-05T04:32:53.816Z,61.41
2022-08-05T04:38:02.230Z,61.71
2022-08-05T04:42:59.389Z,61.55
2022-08-05T04:47:54.893Z,61.68
2022-08-05T04:52:50.916Z,60.97
2022-08-05T04:57:47.792Z,59.88
2022-08-05T05:02:45.247Z,59.29
2022-08-05T05:07:40.173Z,58.98
2022-08-05T05:12:46.330Z,58.63
2022-08-05T05:17:57.159Z,57.89
2022-08-05T05:22:54.775Z,57.54
2022-08-05T05:27:53.665Z,57.56
2022-08-05T05:32:51.510Z,56.70
2022-08-05T05:37:59.500Z,56.37
2022-08-05T05:42:56.818Z,55.43
2022-08-05T05:48:05.333Z,55.11
2022-08-05T05:53:01.129Z,53.68
2022-08-05T05:57:54.462Z,52.46
2022-08-05T06:02:56.493Z,50.96
2022-08-05T06:07:57.609Z,50.65
2022-08-05T06:12:55.147Z,49.31
2022-08-05T06:17:52.589Z,48.24
2022-08-05T06:22:47.842Z,47.73
2022-08-05T06:28:11.224Z,47.15
2022-08-05T06:32:56.104Z,46.26
2022-08-05T06:37:57.342Z,45.36
2022-08-05T06:42:54.577Z,44.83
2022-08-05T06:48:36.869Z,44.04
2022-08-05T06:53:11.759Z,44.20
2022-08-05T06:58:35.495Z,44.14
2022-08-05T07:03:32.842Z,43.67
2022-08-05T07:08:29.234Z,42.63
2022-08-05T07:13:59.743Z,42.42
2022-08-05T07:18:56.427Z,42.34
2022-08-05T07:23:54.907Z,41.62
2022-08-05T07:28:53.740Z,41.27
2022-08-05T07:33:47.322Z,41.90
2022-08-05T07:38:43.217Z,42.21
2022-08-05T07:43:39.126Z,40.48
2022-08-05T07:49:02.311Z,41.11
2022-08-05T07:53:50.020Z,40.65
2022-08-05T07:58:57.636Z,40.21
2022-08-05T08:03:52.854Z,38.94
2022-08-05T08:08:53.811Z,38.68
2022-08-05T08:14:00.792Z,37.84
2022-08-05T08:18:54.532Z,36.62
2022-08-05T08:24:01.846Z,35.53
2022-08-05T08:29:21.540Z,33.94
2022-08-05T08:34:13.823Z,31.99
2022-08-05T08:39:19.743Z,30.37
2022-08-05T08:45:18.857Z,30.04
2022-08-05T08:50:22.276Z,27.71
2022-08-05T08:54:53.792Z,26.48
2022-08-05T09:00:28.701Z,26.44
2022-08-05T09:05:38.378Z,25.24
2022-08-05T09:11:04.302Z,25.69
2022-08-05T09:16:04.041Z,25.34
2022-08-05T09:21:11.641Z,25.17
2022-08-05T09:26:20.501Z,25.45
2022-08-05T09:32:39.919Z,25.69
2022-08-05T09:38:17.286Z,25.84
2022-08-05T09:43:01.763Z,26.33
2022-08-05T09:47:56.811Z,26.61
2022-08-05T09:53:00.131Z,27.14
2022-08-05T09:57:59.720Z,27.18
2022-08-05T10:02:55.058Z,27.41
2022-08-05T10:08:35.880Z,27.78
2022-08-05T10:13:10.137Z,28.29
2022-08-05T10:18:13.854Z,27.59
2022-08-05T10:23:34.277Z,27.61
2022-08-05T10:28:29.601Z,27.08
2022-08-05T10:33:28.920Z,26.62
2022-08-05T10:38:26.212Z,25.73
2022-08-05T10:43:35.775Z,24.68
2022-08-05T10:48:52.983Z,23.28
2022-08-05T10:53:58.198Z,23.09
2022-08-05T11:00:01.049Z,22.63
2022-08-05T11:04:26.382Z,22.29
2022-08-05T11:09:39.517Z,21.94
2022-08-05T11:20:10.030Z,20.33
2022-08-05T11:26:05.040Z,21.49
2022-08-05T11:31:58.503Z,20.90
2022-08-05T11:36:52.653Z,20.10
2022-08-05T11:41:58.091Z,19.64
2022-08-05T11:46:58.633Z,18.77
2022-08-05T11:52:11.057Z,18.16
2022-08-05T11:57:25.679Z,18.06
2022-08-05T12:02:31.766Z,17.88
2022-08-05T12:08:03.399Z,18.21
2022-08-05T12:12:58.393Z,19.52
2022-08-05T12:18:03.133Z,20.74
2022-08-05T12:23:09.663Z,21.45
2022-08-05T12:28:04.823Z,20.80
2022-08-05T12:33:06.909Z,18.92
2022-08-05T12:38:13.381Z,18.60
2022-08-05T12:43:10.035Z,18.79
2022-08-05T12:48:17.432Z,19.16
2022-08-05T12:53:24.093Z,18.69
2022-08-05T12:58:48.495Z,17.76
2022-08-05T13:03:48.668Z,17.91
2022-08-05T13:08:50.913Z,19.46
2022-08-05T13:14:06.007Z,20.67
2022-08-05T13:19:03.098Z,21.95
2022-08-05T13:23:56.423Z,22.82
2022-08-05T13:28:53.408Z,22.51
2022-08-05T13:34:24.127Z,22.46
2022-08-05T13:38:59.879Z,22.57
2022-08-05T13:43:55.344Z,22.57
2022-08-05T13:48:57.697Z,22.89
2022-08-05T13:53:56.404Z,23.52
2022-08-05T13:58:53.427Z,23.41
2022-08-05T14:04:10.364Z,21.76
2022-08-05T14:09:04.159Z,21.00
2022-08-05T14:14:01.982Z,18.87
2022-08-05T14:18:58.976Z,17.81
2022-08-05T14:23:57.997Z,17.61
2022-08-05T14:29:00.352Z,17.07
2022-08-05T14:33:59.618Z,16.32
2022-08-05T14:38:55.366Z,16.80
2022-08-05T14:43:57.673Z,16.61
2022-08-05T14:48:56.906Z,17.34
2022-08-05T14:54:26.819Z,18.31
2022-08-05T14:59:10.149Z,20.36
2022-08-05T15:04:03.452Z,21.42
2022-08-05T15:08:58.173Z,21.54
2022-08-05T15:13:55.035Z,21.90
2022-08-05T15:18:49.754Z,22.78
2022-08-05T15:23:45.944Z,22.72
2022-08-05T15:28:42.981Z,23.14
2022-08-05T15:34:04.332Z,23.31
2022-08-05T15:41:02.130Z,24.28
2022-08-05T15:44:05.372Z,24.31
2022-08-05T15:49:10.078Z,24.40
2022-08-05T15:54:11.068Z,25.09
2022-08-05T16:09:46.205Z,26.39
2022-08-05T16:14:46.961Z,26.32
2022-08-05T16:20:05.014Z,26.55
2022-08-05T16:25:36.728Z,26.59
2022-08-05T16:31:06.874Z,26.35
2022-08-05T16:36:23.852Z,26.99
2022-08-05T16:48:02.929Z,27.10
2022-08-05T16:58:51.784Z,27.03
2022-08-05T17:15:48.824Z,27.83
2022-08-05T17:21:13.891Z,28.07
2022-08-05T17:26:16.548Z,28.35
2022-08-05T17:31:41.363Z,28.68
2022-08-05T17:38:00.689Z,28.93
2022-08-05T17:49:52.007Z,29.47
2022-08-05T17:54:38.278Z,30.04
2022-08-05T17:59:49.003Z,30.06
2022-08-05T18:10:56.023Z,30.54
2022-08-05T18:16:22.889Z,31.02
2022-08-05T18:22:09.115Z,31.50
2022-08-05T18:26:48.112Z,31.66
2022-08-05T18:31:46.728Z,31.84
2022-08-05T18:36:57.881Z,31.87
2022-08-05T18:49:44.608Z,32.16
2022-08-05T18:55:11.903Z,32.53
2022-08-05T19:00:20.598Z,32.90
2022-08-05T19:06:05.631Z,32.97
2022-08-05T19:17:15.056Z,33.57
2022-08-05T19:22:34.620Z,33.95
2022-08-05T19:42:07.231Z,33.89
2022-08-05T19:59:21.316Z,34.19
2022-08-05T20:04:37.398Z,34.57
2022-08-05T20:10:19.414Z,34.49
2022-08-05T20:15:51.538Z,34.48
2022-08-05T20:21:05.246Z,34.50
2022-08-05T20:32:23.078Z,34.51
2022-08-05T20:38:07.594Z,34.88
2022-08-05T20:45:06.299Z,35.08
2022-08-05T20:50:03.157Z,35.08
2022-08-05T21:01:21.834Z,35.20
2022-08-05T21:53:59.584Z,37.82
2022-08-05T21:59:08.096Z,39.05
2022-08-05T22:04:19.519Z,39.85
2022-08-05T22:09:21.679Z,42.56
2022-08-05T22:14:37.931Z,43.98
2022-08-05T22:20:00.131Z,45.19
2022-08-05T22:25:31.156Z,46.85
2022-08-05T22:31:16.569Z,48.37
2022-08-05T22:36:39.027Z,47.35
2022-08-05T22:42:12.315Z,44.83
2022-08-05T22:47:39.749Z,45.64
2022-08-05T22:53:16.738Z,46.28
2022-08-05T22:58:33.757Z,47.16
2022-08-05T23:09:27.809Z,47.28
2022-08-05T23:20:02.486Z,48.41
2022-08-05T23:25:04.596Z,48.97
2022-08-05T23:30:15.250Z,49.69
2022-08-05T23:35:34.492Z,48.63
2022-08-05T23:40:32.692Z,49.33
2022-08-05T23:45:48.592Z,49.33
2022-08-05T23:50:56.541Z,50.63
2022-08-05T23:55:57.441Z,50.40
